Aeroporto :
LOGIN :

Iscrizione | Disclaimer

   EN    FR    IT 

 










Sommario :    VFR   VFR Marginale   IFR   IFR Intensivo   IFR Molto Intensivo
Visibilità : 
Base nubi : 
>= 8 km
>= 3000ft
5 / 8 km
1000 / 3000 ft
1500m / 5 km
500 / 1000 ft
800 / 1500m
200 / 500 ft
< 800m
< 200 ft
Simboli :   Temporali  Nebbia  Neve Forte  Precipitazioni Forti  Vento > 20 kt
SIGMETs :   Varie  Temporali  Ghiacco  Turbolenza  Onda orograficha  Ceneri Vulcaniche






- Altitudine del aeroporto : 72 ft
- Codice IATA : UDE


EHVK - Volkel Airbase

ULTIMO METAR :
  • 150509Z AUTO 22019KT 190V250 9999 -RA FEW015CB SCT042 BKN048 08/06 Q0990 BLU

METARs OBSOLETI :
  • 150455Z AUTO 22020KT 190V250 9999 -SHRA SCT015CB BKN034 BKN039 09/07 Q0990 RERA WHT
  • 150425Z AUTO 21014KT 180V250 9999 -RA FEW007 SCT010 BKN014 FEW015CB 08/07 Q0990 GRN
  • 150359Z AUTO 19013KT 150V230 9999 RA FEW009 FEW015CB SCT017 BKN020 08/07 Q0990 WHT
  • 150355Z AUTO 18012KT 150V230 9999 -RA FEW008 SCT014 FEW015CB BKN024 08/07 Q0990 RERA REDZ GRN
  • 150335Z AUTO 18011KT 140V230 9999 FEW009 SCT014 FEW015CB BKN016 07/07 Q0990 GRN
  • 150325Z AUTO 18011KT 150V210 9999 FEW009 BKN015CB 07/06 Q0991 REDZ WHT
  • 150303Z AUTO 17011KT 130V220 9999 FEW006 SCT007 BKN009 07/06 Q0991 GRN
  • 150255Z AUTO 17010KT 140V220 8000 -DZ FEW006 BKN007 BKN008 06/06 Q0991 REDZ GRN
  • 150239Z AUTO 17013KT 140V210 6000 DZ FEW008 SCT012 BKN014 07/05 Q0992 GRN
  • 150232Z AUTO 18014KT 140V210 6000 -DZ FEW008 SCT013 OVC016 07/05 Q0992 GRN
  • 150225Z AUTO 18014KT 140V210 9999 BKN016 OVC020 07/04 Q0992 WHT

TAF TAF EHVK
Valido dal 15 a 02 ore il 15 a 14 ore UTC


150144Z 1502/1514 17010KT 9999 FEW040 BKN060
BECMG 1503/1506 22012KT
TEMPO 1503/1508 24020G37KT SCT012 BKN015 OVC030
PROB40
TEMPO 1503/1506 25017G40KT 4000 TSRAGS SCT008 SCT015CB BKN020



MetMap, La meteo Aeronautica in un colpo d'occhio ! - Copyright ORBIFLY Dicembre 2007 - Disclaimer

ORBIFLY MET'MAP TEAM :

Programmazione e sviluppo : Alexandra Zaïnal
Concezione : Baudouin d'Aumeries
Aiuto per la programmazione : Marc-Olivier Méhu
Supporto tecnico e logistico : Manuel Goepfert
Aiuto per la traduzione : Arnaldo La Scala

Contatto : metmap@orbifly.com




FONTI E CREDITI :

   NOAA